createdAt,value
2018-01-18T00:01:24.224Z,71.70
2018-01-18T00:03:59.512Z,71.10
2018-01-18T00:06:33.119Z,72.00
2018-01-18T00:09:06.873Z,73.20
2018-01-18T00:11:41.702Z,73.20
2018-01-18T00:14:15.517Z,73.50
2018-01-18T00:16:49.304Z,74.10
2018-01-18T00:19:24.093Z,73.00
2018-01-18T00:21:57.886Z,71.00
2018-01-18T00:27:11.460Z,72.60
2018-01-18T00:29:45.808Z,73.20
2018-01-18T00:32:21.136Z,73.00
2018-01-18T00:34:55.908Z,73.20
2018-01-18T00:37:29.701Z,72.40
2018-01-18T00:40:06.259Z,72.10
2018-01-18T00:42:41.001Z,72.20
2018-01-18T00:45:14.724Z,72.20
2018-01-18T00:47:49.175Z,72.70
2018-01-18T00:50:23.827Z,72.60
2018-01-18T00:52:58.157Z,72.70
2018-01-18T00:55:32.170Z,73.00
2018-01-18T00:58:08.058Z,72.90
2018-01-18T01:00:42.572Z,72.80
2018-01-18T01:03:16.416Z,73.80
2018-01-18T01:05:50.248Z,74.40
2018-01-18T01:08:24.510Z,72.60
2018-01-18T01:10:58.168Z,72.60
2018-01-18T01:13:32.973Z,73.80
2018-01-18T01:16:07.316Z,73.80
2018-01-18T01:18:42.638Z,73.50
2018-01-18T01:21:16.513Z,74.30
2018-01-18T01:23:52.070Z,74.10
2018-01-18T01:26:27.060Z,73.00
2018-01-18T01:29:00.950Z,73.40
2018-01-18T01:31:34.612Z,72.60
2018-01-18T01:34:08.244Z,72.80
2018-01-18T01:36:41.963Z,72.40
2018-01-18T01:39:16.573Z,71.40
2018-01-18T01:41:51.061Z,71.60
2018-01-18T01:44:25.435Z,71.70
2018-01-18T01:46:59.290Z,71.70
2018-01-18T01:49:32.968Z,71.90
2018-01-18T01:52:06.766Z,71.90
2018-01-18T01:54:40.331Z,72.30
2018-01-18T01:57:14.951Z,73.40
2018-01-18T01:59:48.733Z,73.50
2018-01-18T02:02:23.612Z,73.80
2018-01-18T02:04:58.120Z,74.70
2018-01-18T02:07:32.741Z,74.70
2018-01-18T02:10:07.241Z,74.70
2018-01-18T02:12:41.084Z,74.40
2018-01-18T02:15:16.557Z,74.70
2018-01-18T02:17:51.051Z,74.80
2018-01-18T02:20:24.848Z,74.70
2018-01-18T02:22:59.361Z,74.70
2018-01-18T02:25:33.108Z,74.70
2018-01-18T02:28:08.488Z,75.10
2018-01-18T02:30:43.059Z,75.00
2018-01-18T02:33:18.136Z,74.70
2018-01-18T02:35:52.812Z,74.70
2018-01-18T02:38:27.078Z,74.70
2018-01-18T02:41:01.995Z,74.70
2018-01-18T02:43:36.400Z,74.10
2018-01-18T02:46:11.689Z,74.20
2018-01-18T02:48:48.383Z,73.20
2018-01-18T02:51:24.407Z,72.80
2018-01-18T02:53:59.706Z,72.80
2018-01-18T02:56:35.044Z,72.80
2018-01-18T02:59:10.266Z,72.30
2018-01-18T03:01:44.686Z,72.30
2018-01-18T03:04:18.393Z,72.30
2018-01-18T03:06:52.980Z,71.50
2018-01-18T03:09:26.638Z,70.70
2018-01-18T03:12:03.072Z,70.80
2018-01-18T03:14:37.660Z,70.80
2018-01-18T03:17:11.852Z,70.80
2018-01-18T03:19:45.616Z,70.80
2018-01-18T03:22:20.178Z,70.50
2018-01-18T03:24:54.158Z,70.40
2018-01-18T03:27:27.892Z,69.80
2018-01-18T03:30:01.599Z,69.70
2018-01-18T03:32:35.384Z,70.10
2018-01-18T03:35:09.162Z,70.80
2018-01-18T03:37:42.963Z,70.70
2018-01-18T03:40:18.145Z,71.60
2018-01-18T03:42:51.740Z,71.00
2018-01-18T03:45:25.598Z,71.30
2018-01-18T03:48:00.214Z,71.00
2018-01-18T03:50:33.755Z,70.80
2018-01-18T03:53:07.521Z,70.80
2018-01-18T03:55:41.287Z,70.80
2018-01-18T03:58:15.055Z,70.70
2018-01-18T04:00:48.868Z,70.00
2018-01-18T04:03:22.544Z,69.80
2018-01-18T04:05:56.316Z,69.00
2018-01-18T04:08:30.905Z,69.90
2018-01-18T04:11:05.704Z,69.90
2018-01-18T04:13:40.386Z,70.80
2018-01-18T04:16:14.311Z,70.80
2018-01-18T04:18:48.687Z,70.80
2018-01-18T04:21:23.224Z,70.80
2018-01-18T04:23:58.222Z,70.00
2018-01-18T04:26:31.952Z,70.10
2018-01-18T04:29:05.758Z,70.80
2018-01-18T04:31:39.544Z,70.90
2018-01-18T04:34:14.396Z,69.70
2018-01-18T04:36:48.076Z,69.90
2018-01-18T04:39:22.292Z,68.50
2018-01-18T04:41:56.716Z,69.10
2018-01-18T04:44:31.158Z,68.50
2018-01-18T04:47:05.638Z,68.60
2018-01-18T04:49:40.816Z,68.90
2018-01-18T04:52:15.439Z,67.70
2018-01-18T04:54:49.182Z,67.70
2018-01-18T04:57:23.830Z,67.70
2018-01-18T04:59:57.578Z,67.70
2018-01-18T05:02:32.376Z,68.90
2018-01-18T05:05:06.356Z,70.00
2018-01-18T05:07:40.672Z,71.00
2018-01-18T05:10:15.262Z,71.00
2018-01-18T05:12:48.965Z,72.00
2018-01-18T05:15:22.771Z,72.60
2018-01-18T05:17:56.476Z,72.50
2018-01-18T05:20:31.017Z,73.70
2018-01-18T05:23:04.823Z,73.60
2018-01-18T05:25:39.475Z,74.90
2018-01-18T05:28:13.144Z,73.90
2018-01-18T05:30:47.840Z,74.80
2018-01-18T05:33:23.105Z,74.80
2018-01-18T05:35:56.953Z,75.20
2018-01-18T05:38:32.233Z,75.30
2018-01-18T05:41:06.832Z,75.70
2018-01-18T05:43:40.651Z,76.00
2018-01-18T05:46:14.477Z,75.80
2018-01-18T05:48:49.084Z,75.30
2018-01-18T05:51:24.947Z,75.20
2018-01-18T05:53:59.191Z,76.10
2018-01-18T05:56:33.352Z,75.20
2018-01-18T05:59:09.207Z,75.20
2018-01-18T06:01:47.201Z,74.90
2018-01-18T06:04:22.880Z,75.30
2018-01-18T06:06:58.305Z,76.10
2018-01-18T06:09:31.954Z,76.00
2018-01-18T06:12:06.761Z,77.40
2018-01-18T06:14:40.360Z,77.80
2018-01-18T06:17:15.964Z,77.20
2018-01-18T06:19:50.508Z,79.00
2018-01-18T06:22:24.307Z,79.20
2018-01-18T06:24:58.764Z,79.20
2018-01-18T06:27:33.511Z,79.70
2018-01-18T06:30:09.097Z,81.20
2018-01-18T06:32:43.360Z,81.10
2018-01-18T06:35:17.292Z,80.60
2018-01-18T06:37:51.033Z,81.20
2018-01-18T06:40:24.833Z,82.00
2018-01-18T06:42:58.625Z,81.80
2018-01-18T06:45:33.207Z,84.40
2018-01-18T06:48:06.976Z,84.40
2018-01-18T06:50:41.579Z,86.00
2018-01-18T06:53:15.330Z,86.00
2018-01-18T06:55:49.917Z,85.80
2018-01-18T06:58:24.387Z,87.30
2018-01-18T07:00:58.234Z,87.20
2018-01-18T07:03:32.085Z,88.20
2018-01-18T07:06:06.815Z,89.30
2018-01-18T07:08:41.221Z,90.40
2018-01-18T07:11:14.984Z,90.40
2018-01-18T07:13:48.712Z,90.90
2018-01-18T07:16:22.967Z,90.90
2018-01-18T07:18:56.790Z,91.10
2018-01-18T07:21:30.621Z,91.30
2018-01-18T07:24:04.439Z,91.30
2018-01-18T07:26:38.132Z,91.30
2018-01-18T07:29:11.887Z,91.40
2018-01-18T07:31:46.433Z,91.50
2018-01-18T07:34:20.204Z,91.50
2018-01-18T07:36:54.751Z,91.30
2018-01-18T07:39:28.580Z,91.30
2018-01-18T07:42:02.391Z,91.00
2018-01-18T07:44:36.155Z,91.00
2018-01-18T07:47:09.930Z,91.30
2018-01-18T07:49:44.373Z,91.30
2018-01-18T07:52:18.191Z,91.20
2018-01-18T07:54:51.959Z,91.10
2018-01-18T07:57:25.631Z,91.10
2018-01-18T07:59:59.443Z,91.70
2018-01-18T08:02:33.304Z,91.80
2018-01-18T08:05:07.480Z,92.10
2018-01-18T08:07:41.079Z,92.30
2018-01-18T08:10:14.871Z,91.70
2018-01-18T08:12:48.692Z,91.90
2018-01-18T08:15:23.220Z,91.70
2018-01-18T08:17:56.976Z,91.80
2018-01-18T08:20:30.819Z,91.40
2018-01-18T08:23:04.615Z,91.10
2018-01-18T08:25:39.468Z,90.70
2018-01-18T08:28:13.194Z,91.00
2018-01-18T08:30:47.826Z,90.80
2018-01-18T08:33:21.439Z,90.80
2018-01-18T08:35:56.159Z,90.70
2018-01-18T08:38:30.993Z,90.20
2018-01-18T08:41:04.757Z,90.20
2018-01-18T08:43:38.472Z,88.50
2018-01-18T08:46:12.343Z,88.50
2018-01-18T08:48:46.038Z,88.40
2018-01-18T08:51:19.846Z,89.30
2018-01-18T08:53:53.711Z,89.20
2018-01-18T08:56:28.580Z,89.30
2018-01-18T08:59:02.377Z,89.50
2018-01-18T09:01:37.496Z,88.40
2018-01-18T09:04:11.327Z,88.50
2018-01-18T09:06:46.353Z,88.60
2018-01-18T09:09:20.168Z,88.90
2018-01-18T09:11:53.980Z,89.50
2018-01-18T09:14:28.638Z,89.10
2018-01-18T09:17:03.227Z,88.70
2018-01-18T09:19:37.766Z,89.20
2018-01-18T09:22:16.305Z,89.10
2018-01-18T09:24:52.098Z,90.60
2018-01-18T09:27:28.251Z,91.10
2018-01-18T09:30:02.208Z,91.10
2018-01-18T09:32:35.795Z,90.80
2018-01-18T09:35:10.457Z,91.00
2018-01-18T09:37:44.224Z,90.70
2018-01-18T09:40:18.510Z,90.90
2018-01-18T09:42:54.046Z,91.40
2018-01-18T09:45:27.906Z,91.40
2018-01-18T09:48:01.776Z,91.20
2018-01-18T09:50:35.508Z,91.80
2018-01-18T09:53:10.344Z,92.20
2018-01-18T09:55:45.757Z,92.20
2018-01-18T09:58:19.685Z,91.90
2018-01-18T10:00:54.076Z,91.60
2018-01-18T10:03:27.863Z,91.10
2018-01-18T10:06:01.733Z,90.50
2018-01-18T10:08:35.500Z,88.40
2018-01-18T10:11:09.305Z,87.70
2018-01-18T10:13:43.214Z,86.70
2018-01-18T10:16:17.028Z,87.10
2018-01-18T10:18:50.830Z,87.20
2018-01-18T10:21:24.671Z,86.40
2018-01-18T10:23:58.650Z,86.20
2018-01-18T10:26:32.380Z,85.70
2018-01-18T10:29:06.186Z,85.80
2018-01-18T10:31:39.903Z,84.80
2018-01-18T10:34:13.671Z,85.90
2018-01-18T10:36:47.915Z,85.60
2018-01-18T10:39:21.583Z,86.50
2018-01-18T10:41:56.048Z,87.90
2018-01-18T10:44:29.784Z,87.80
2018-01-18T10:47:03.351Z,87.90
2018-01-18T10:49:37.119Z,86.30
2018-01-18T10:52:10.886Z,84.70
2018-01-18T10:54:44.552Z,82.10
2018-01-18T10:57:18.139Z,77.80
2018-01-18T10:59:51.807Z,72.90
2018-01-18T11:02:25.565Z,73.50
2018-01-18T11:04:59.289Z,66.10
2018-01-18T11:07:32.847Z,63.30
2018-01-18T11:10:06.644Z,61.10
2018-01-18T11:12:41.078Z,57.60
2018-01-18T11:15:14.847Z,57.50
2018-01-18T11:17:48.624Z,53.40
2018-01-18T11:20:22.384Z,51.20
2018-01-18T11:22:56.276Z,51.90
2018-01-18T11:25:30.149Z,49.10
2018-01-18T11:28:03.944Z,44.70
2018-01-18T11:30:38.157Z,43.20
2018-01-18T11:33:11.972Z,43.10
2018-01-18T11:35:45.800Z,43.70
2018-01-18T11:38:19.694Z,48.40
2018-01-18T11:40:53.327Z,41.00
2018-01-18T11:43:27.210Z,40.30
2018-01-18T11:46:01.684Z,37.40
2018-01-18T11:48:36.304Z,37.10
2018-01-18T11:51:10.012Z,36.60
2018-01-18T11:53:43.853Z,35.50
2018-01-18T11:56:17.535Z,37.90
2018-01-18T11:58:51.336Z,40.00
2018-01-18T12:01:25.202Z,44.30
2018-01-18T12:03:58.924Z,51.60
2018-01-18T12:06:32.796Z,56.00
2018-01-18T12:09:06.567Z,59.20
2018-01-18T12:11:41.328Z,62.40
2018-01-18T12:14:15.983Z,58.40
2018-01-18T12:16:50.641Z,60.80
2018-01-18T12:19:25.539Z,62.90
2018-01-18T12:22:00.130Z,65.20
2018-01-18T12:24:33.885Z,67.30
2018-01-18T12:27:08.260Z,71.90
2018-01-18T12:29:42.038Z,76.60
2018-01-18T12:32:16.027Z,77.70
2018-01-18T12:34:51.078Z,80.90
2018-01-18T12:37:25.722Z,83.00
2018-01-18T12:39:59.345Z,83.90
2018-01-18T12:42:34.093Z,81.60
2018-01-18T12:45:07.803Z,81.30
2018-01-18T12:47:41.612Z,82.60
2018-01-18T12:50:15.261Z,86.00
2018-01-18T12:52:48.832Z,84.10
2018-01-18T12:55:22.561Z,82.50
2018-01-18T12:57:58.848Z,84.80
2018-01-18T13:00:33.221Z,84.40
2018-01-18T13:03:07.597Z,84.40
2018-01-18T13:05:41.434Z,84.80
2018-01-18T13:08:15.179Z,87.40
2018-01-18T13:10:48.984Z,86.30
2018-01-18T13:13:23.050Z,85.30
2018-01-18T13:15:58.397Z,81.40
2018-01-18T13:18:32.298Z,81.90
2018-01-18T13:21:05.980Z,81.30
2018-01-18T13:23:39.897Z,81.10
2018-01-18T13:26:14.439Z,84.10
2018-01-18T13:28:48.080Z,84.40
2018-01-18T13:31:22.401Z,84.30
2018-01-18T13:33:56.058Z,87.30
2018-01-18T13:36:29.786Z,90.30
2018-01-18T13:39:03.551Z,86.30
2018-01-18T13:41:37.148Z,87.20
2018-01-18T13:44:12.033Z,85.10
2018-01-18T13:46:45.921Z,85.80
2018-01-18T13:49:19.685Z,81.90
2018-01-18T13:51:54.294Z,80.00
2018-01-18T13:54:29.392Z,82.90
2018-01-18T13:57:03.306Z,82.80
2018-01-18T13:59:37.080Z,74.50
2018-01-18T14:02:10.875Z,76.70
2018-01-18T14:04:46.080Z,79.00
2018-01-18T14:07:21.255Z,75.70
2018-01-18T14:09:56.411Z,74.40
2018-01-18T14:12:32.236Z,76.30
2018-01-18T14:15:06.015Z,73.20
2018-01-18T14:17:39.824Z,70.80
2018-01-18T14:20:13.576Z,71.30
2018-01-18T14:22:47.232Z,70.50
2018-01-18T14:25:22.434Z,70.10
2018-01-18T14:27:58.119Z,70.60
2018-01-18T14:30:32.561Z,70.40
2018-01-18T14:33:07.137Z,68.90
2018-01-18T14:35:42.176Z,71.20
2018-01-18T14:38:16.197Z,69.40
2018-01-18T14:40:50.115Z,69.50
2018-01-18T14:43:24.577Z,66.60
2018-01-18T14:45:58.168Z,67.60
2018-01-18T14:48:32.001Z,67.70
2018-01-18T14:51:06.100Z,70.60
2018-01-18T14:53:39.782Z,66.80
2018-01-18T14:56:14.003Z,66.20
2018-01-18T14:58:48.416Z,66.10
2018-01-18T15:01:23.518Z,67.80
2018-01-18T15:03:57.154Z,67.80
2018-01-18T15:06:30.986Z,69.20
2018-01-18T15:09:05.481Z,69.70
2018-01-18T15:11:39.098Z,68.00
2018-01-18T15:14:12.984Z,66.60
2018-01-18T15:16:46.663Z,66.10
2018-01-18T15:19:20.606Z,65.70
2018-01-18T15:21:54.366Z,67.30
2018-01-18T15:24:28.155Z,65.00
2018-01-18T15:27:01.855Z,66.40
2018-01-18T15:29:35.668Z,65.00
2018-01-18T15:32:09.529Z,63.90
2018-01-18T15:34:43.535Z,63.30
2018-01-18T15:37:17.327Z,63.40
2018-01-18T15:39:51.172Z,63.90
2018-01-18T15:42:24.899Z,64.60
2018-01-18T15:44:58.642Z,66.50
2018-01-18T15:47:32.947Z,64.50
2018-01-18T15:50:06.869Z,64.80
2018-01-18T15:52:40.671Z,65.00
2018-01-18T15:55:15.162Z,65.70
2018-01-18T15:57:49.310Z,65.30
2018-01-18T16:00:24.005Z,64.90
2018-01-18T16:02:58.247Z,64.50
2018-01-18T16:05:32.649Z,64.80
2018-01-18T16:08:06.369Z,64.70
2018-01-18T16:10:40.933Z,63.80
2018-01-18T16:13:15.223Z,63.70
2018-01-18T16:15:48.848Z,64.30
2018-01-18T16:18:23.046Z,63.40
2018-01-18T16:20:56.871Z,63.10
2018-01-18T16:23:30.890Z,63.40
2018-01-18T16:26:05.528Z,64.30
2018-01-18T16:28:40.156Z,65.30
2018-01-18T16:31:13.997Z,65.40
2018-01-18T16:33:48.039Z,66.20
2018-01-18T16:36:22.336Z,66.30
2018-01-18T16:38:58.100Z,66.60
2018-01-18T16:41:32.656Z,68.70
2018-01-18T16:44:06.356Z,67.90
2018-01-18T16:46:40.435Z,67.70
2018-01-18T16:49:15.400Z,67.80
2018-01-18T16:51:49.426Z,68.60
2018-01-18T16:54:24.924Z,68.90
2018-01-18T16:56:59.743Z,70.40
2018-01-18T16:59:33.513Z,71.30
2018-01-18T17:02:08.611Z,71.30
2018-01-18T17:04:42.460Z,71.30
2018-01-18T17:07:16.170Z,72.20
2018-01-18T17:09:50.774Z,75.30
2018-01-18T17:12:25.229Z,76.00
2018-01-18T17:15:00.312Z,78.70
2018-01-18T17:17:36.275Z,80.90
2018-01-18T17:20:13.013Z,82.50
2018-01-18T17:22:47.460Z,83.70
2018-01-18T17:25:22.057Z,84.50
2018-01-18T17:27:56.364Z,85.30
2018-01-18T17:30:30.823Z,85.10
2018-01-18T17:33:05.868Z,85.00
2018-01-18T17:35:39.688Z,85.00
2018-01-18T17:38:13.940Z,84.50
2018-01-18T17:40:48.435Z,84.40
2018-01-18T17:43:22.817Z,85.30
2018-01-18T17:45:56.571Z,85.90
2018-01-18T17:48:30.336Z,87.40
2018-01-18T17:51:04.055Z,87.60
2018-01-18T17:53:39.757Z,89.60
2018-01-18T17:56:13.390Z,90.30
2018-01-18T17:58:47.867Z,90.80
2018-01-18T18:01:21.720Z,91.10
2018-01-18T18:03:57.183Z,91.10
2018-01-18T18:06:32.555Z,91.30
2018-01-18T18:09:06.157Z,91.50
2018-01-18T18:11:40.572Z,91.50
2018-01-18T18:14:15.955Z,91.50
2018-01-18T18:16:49.698Z,91.30
2018-01-18T18:19:23.508Z,91.40
2018-01-18T18:21:57.290Z,91.20
2018-01-18T18:24:31.032Z,91.30
2018-01-18T18:27:05.548Z,91.30
2018-01-18T18:29:39.407Z,91.40
2018-01-18T18:32:13.981Z,91.40
2018-01-18T18:34:47.702Z,91.40
2018-01-18T18:37:21.954Z,91.40
2018-01-18T18:39:55.589Z,91.60
2018-01-18T18:42:29.309Z,91.60
2018-01-18T18:45:03.980Z,91.80
2018-01-18T18:47:37.901Z,91.90
2018-01-18T18:50:11.665Z,91.90
2018-01-18T18:52:45.935Z,91.60
2018-01-18T18:55:20.402Z,91.50
2018-01-18T18:57:54.796Z,91.40
2018-01-18T19:00:29.350Z,91.40
2018-01-18T19:03:03.159Z,91.00
2018-01-18T19:05:36.855Z,90.80
2018-01-18T19:08:10.634Z,90.70
2018-01-18T19:10:46.012Z,89.90
2018-01-18T19:13:19.817Z,89.90
2018-01-18T19:15:54.324Z,89.30
2018-01-18T19:18:28.152Z,88.70
2018-01-18T19:21:01.841Z,89.40
2018-01-18T19:23:35.654Z,87.60
2018-01-18T19:26:10.310Z,87.80
2018-01-18T19:28:43.977Z,87.00
2018-01-18T19:31:17.781Z,87.40
2018-01-18T19:33:51.578Z,85.80
2018-01-18T19:36:25.327Z,84.20
2018-01-18T19:38:59.953Z,85.80
2018-01-18T19:41:33.660Z,85.20
2018-01-18T19:44:07.602Z,84.50
2018-01-18T19:46:41.249Z,83.70
2018-01-18T19:49:14.861Z,82.90
2018-01-18T19:51:48.742Z,81.40
2018-01-18T19:54:22.565Z,82.30
2018-01-18T19:56:56.264Z,82.50
2018-01-18T19:59:30.841Z,80.60
2018-01-18T20:02:05.374Z,81.30
2018-01-18T20:04:39.202Z,81.30
2018-01-18T20:07:13.070Z,81.00
2018-01-18T20:09:46.984Z,80.30
2018-01-18T20:12:20.805Z,79.40
2018-01-18T20:14:54.529Z,79.40
2018-01-18T20:17:28.116Z,78.60
2018-01-18T20:20:04.176Z,78.50
2018-01-18T20:22:38.887Z,78.90
2018-01-18T20:25:12.620Z,78.20
2018-01-18T20:27:47.799Z,78.20
2018-01-18T20:30:22.820Z,77.10
2018-01-18T20:32:57.213Z,77.80
2018-01-18T20:35:31.252Z,78.20
2018-01-18T20:38:05.080Z,79.20
2018-01-18T20:40:38.882Z,79.80
2018-01-18T20:43:13.028Z,81.20
2018-01-18T20:45:46.821Z,80.10
2018-01-18T20:48:20.592Z,80.00
2018-01-18T20:50:55.016Z,80.00
2018-01-18T20:53:28.796Z,79.60
2018-01-18T20:56:02.418Z,79.40
2018-01-18T20:58:36.980Z,79.40
2018-01-18T21:01:10.738Z,79.40
2018-01-18T21:03:44.455Z,79.40
2018-01-18T21:06:20.618Z,79.50
2018-01-18T21:08:55.155Z,79.40
2018-01-18T21:11:29.060Z,79.10
2018-01-18T21:14:02.894Z,78.90
2018-01-18T21:16:37.442Z,79.30
2018-01-18T21:19:12.305Z,79.40
2018-01-18T21:21:46.975Z,79.00
2018-01-18T21:24:20.744Z,78.50
2018-01-18T21:26:54.587Z,77.60
2018-01-18T21:29:28.240Z,78.20
2018-01-18T21:32:02.029Z,78.60
2018-01-18T21:34:35.796Z,77.80
2018-01-18T21:37:10.248Z,77.50
2018-01-18T21:39:44.641Z,77.50
2018-01-18T21:42:18.408Z,77.30
2018-01-18T21:44:52.970Z,75.80
2018-01-18T21:47:26.811Z,75.90
2018-01-18T21:50:01.433Z,75.40
2018-01-18T21:52:35.945Z,77.80
2018-01-18T21:55:09.750Z,78.20
2018-01-18T21:57:43.316Z,76.80
2018-01-18T22:00:17.395Z,77.60
2018-01-18T22:02:52.015Z,76.90
2018-01-18T22:05:25.913Z,76.90
2018-01-18T22:08:00.622Z,77.70
2018-01-18T22:10:35.951Z,76.10
2018-01-18T22:13:10.233Z,75.60
2018-01-18T22:15:44.054Z,74.90
2018-01-18T22:18:17.808Z,75.30
2018-01-18T22:20:52.959Z,76.00
2018-01-18T22:23:26.686Z,76.80
2018-01-18T22:26:02.478Z,76.40
2018-01-18T22:28:37.473Z,76.30
2018-01-18T22:31:11.127Z,76.20
2018-01-18T22:33:46.183Z,76.10
2018-01-18T22:36:20.816Z,76.00
2018-01-18T22:38:55.537Z,77.10
2018-01-18T22:41:29.411Z,76.90
2018-01-18T22:44:06.028Z,76.60
2018-01-18T22:46:43.453Z,76.60
2018-01-18T22:49:18.101Z,76.50
2018-01-18T22:51:52.122Z,75.70
2018-01-18T22:54:26.283Z,76.80
2018-01-18T22:57:01.335Z,76.20
2018-01-18T22:59:36.064Z,75.80
2018-01-18T23:02:10.602Z,76.00
2018-01-18T23:04:44.322Z,76.30
2018-01-18T23:07:19.436Z,76.00
2018-01-18T23:09:53.190Z,76.00
2018-01-18T23:12:26.968Z,75.40
2018-01-18T23:15:01.910Z,76.40
2018-01-18T23:17:41.754Z,75.30
2018-01-18T23:20:15.596Z,75.10
2018-01-18T23:22:49.877Z,74.60
2018-01-18T23:25:23.754Z,75.10
2018-01-18T23:27:58.247Z,75.00
2018-01-18T23:30:32.117Z,74.80
2018-01-18T23:33:05.833Z,75.30
2018-01-18T23:35:42.015Z,74.50
2018-01-18T23:38:16.688Z,74.80
2018-01-18T23:40:50.351Z,74.20
2018-01-18T23:43:25.803Z,75.20
2018-01-18T23:45:59.493Z,75.30
2018-01-18T23:48:34.078Z,75.20
2018-01-18T23:51:08.060Z,74.30
2018-01-18T23:53:42.621Z,75.40
2018-01-18T23:56:16.324Z,75.40
2018-01-18T23:58:49.868Z,74.20
